Time;durP1;ratioP1;P1;durP2;ratioP2;P2;SDS_P1;SDS_P2;PMS_P1;PMS_P2;Temp;Humidity;BMP_temperature;BMP_pressure;BME280_temperature;BME280_humidity;BME280_pressure;Samples;Min_cycle;Max_cycle;Signal;HPM_P1;HPM_P2
2022/07/13 00:00:58;;;;;;;22.20;10.35;;;;;;;22.47;85.10;102081.19;5010238;28;20032;-51
2022/07/13 00:03:23;;;;;;;16.88;10.05;;;;;;;22.39;83.97;102082.25;5016270;28;20343;-50
2022/07/13 00:05:48;;;;;;;14.02;9.95;;;;;;;22.42;84.49;102081.84;5017003;28;20033;-51
2022/07/13 00:08:13;;;;;;;15.05;9.82;;;;;;;22.42;83.79;102062.78;5008662;28;20419;-48
2022/07/13 00:10:39;;;;;;;16.90;9.63;;;;;;;22.43;85.56;102060.88;5015944;28;20112;-50
2022/07/13 00:13:04;;;;;;;13.98;9.75;;;;;;;22.44;85.33;102051.69;5016461;28;20036;-50
2022/07/13 00:15:29;;;;;;;19.05;10.10;;;;;;;22.42;84.08;102061.91;5017125;28;20029;-50
2022/07/13 00:17:55;;;;;;;18.92;9.98;;;;;;;22.42;86.65;102057.34;5016456;28;20028;-51
2022/07/13 00:20:20;;;;;;;14.40;10.27;;;;;;;22.40;87.14;102051.25;5016749;28;20031;-49
2022/07/13 00:22:45;;;;;;;16.33;9.68;;;;;;;22.35;87.13;102043.72;4999120;28;20036;-52
2022/07/13 00:25:10;;;;;;;15.10;9.73;;;;;;;22.33;85.90;102044.97;5013723;28;20018;-51
2022/07/13 00:27:36;;;;;;;21.38;9.75;;;;;;;22.32;87.53;102040.59;5016642;28;20508;-51
2022/07/13 00:30:01;;;;;;;19.42;9.80;;;;;;;22.30;85.31;102027.19;5016762;28;20033;-49
2022/07/13 00:32:26;;;;;;;17.75;9.80;;;;;;;22.25;87.19;102034.25;5016030;28;20341;-48
2022/07/13 00:34:52;;;;;;;16.23;9.73;;;;;;;22.23;86.10;102031.75;5014299;28;20040;-51
2022/07/13 00:37:17;;;;;;;18.27;9.82;;;;;;;22.19;84.09;102030.50;5015944;28;20055;-52
2022/07/13 00:39:42;;;;;;;14.95;9.60;;;;;;;22.20;86.76;102021.31;5010666;28;20442;-50
2022/07/13 00:42:08;;;;;;;15.30;10.30;;;;;;;22.16;84.99;102020.84;4997226;28;20053;-52
2022/07/13 00:44:33;;;;;;;22.58;9.68;;;;;;;22.12;86.25;102021.50;5017327;28;20030;-53
2022/07/13 00:46:58;;;;;;;13.65;9.27;;;;;;;22.12;86.09;102026.94;4998173;28;20491;-51
2022/07/13 00:49:24;;;;;;;16.40;9.60;;;;;;;22.10;86.49;102023.63;5015916;28;20420;-52
2022/07/13 00:51:50;;;;;;;20.75;10.00;;;;;;;22.10;86.68;102010.84;5016335;28;20116;-52
2022/07/13 00:54:19;;;;;;;18.38;9.82;;;;;;;22.10;87.61;101990.97;5015425;28;20028;-52
2022/07/13 00:56:45;;;;;;;16.23;9.90;;;;;;;22.07;86.93;101988.66;4997037;28;20048;-52
2022/07/13 00:59:10;;;;;;;15.05;9.90;;;;;;;22.09;85.83;101997.44;5015278;28;20476;-52
2022/07/13 01:01:35;;;;;;;21.20;10.00;;;;;;;22.09;86.01;101995.53;5015151;28;20037;-53
2022/07/13 01:04:00;;;;;;;21.63;10.50;;;;;;;22.08;86.80;101993.03;5016340;28;20052;-52
2022/07/13 01:06:26;;;;;;;19.00;9.50;;;;;;;22.07;90.32;101991.38;5015249;28;20185;-52
2022/07/13 01:08:51;;;;;;;14.13;9.70;;;;;;;22.02;88.40;101989.28;5008684;28;20300;-52
2022/07/13 01:11:17;;;;;;;19.25;9.75;;;;;;;21.99;87.45;101989.69;5013301;28;20049;-51
2022/07/13 01:13:45;;;;;;;18.40;10.10;;;;;;;22.01;87.90;101981.31;5015915;28;20124;-53
2022/07/13 01:16:10;;;;;;;18.67;9.65;;;;;;;21.96;88.70;101987.38;5015874;28;20030;-53
2022/07/13 01:18:36;;;;;;;14.77;10.18;;;;;;;21.96;86.51;101990.97;5014761;28;20029;-53
2022/07/13 01:21:02;;;;;;;16.15;9.40;;;;;;;22.01;85.58;101995.75;5015973;28;20025;-53
2022/07/13 01:23:27;;;;;;;22.50;9.88;;;;;;;21.95;85.58;101989.28;5015080;28;20365;-52
2022/07/13 01:25:56;;;;;;;17.27;9.27;;;;;;;21.96;86.69;101990.97;5014689;28;20086;-52
2022/07/13 01:28:24;;;;;;;16.38;9.07;;;;;;;21.95;86.26;101986.56;5014707;28;20057;-51
2022/07/13 01:30:50;;;;;;;15.73;9.60;;;;;;;21.91;84.84;101988.03;5015886;28;20025;-53
2022/07/13 01:33:15;;;;;;;14.90;9.30;;;;;;;21.96;84.14;101992.81;5014791;28;20396;-53
2022/07/13 01:35:41;;;;;;;18.83;9.70;;;;;;;21.91;83.19;101993.47;4995612;28;20591;-52
2022/07/13 01:38:08;;;;;;;19.23;9.45;;;;;;;21.94;82.96;101989.47;5014287;28;20073;-53
2022/07/13 01:40:33;;;;;;;15.73;9.18;;;;;;;21.95;87.48;101983.84;5013009;28;20372;-51
2022/07/13 01:42:59;;;;;;;15.27;9.00;;;;;;;21.97;88.17;101975.47;5015682;28;20349;-51
2022/07/13 01:45:25;;;;;;;16.45;9.35;;;;;;;21.95;87.14;101967.50;5014865;28;20471;-52
2022/07/13 01:47:52;;;;;;;13.13;9.35;;;;;;;21.95;85.62;101974.84;5014600;28;20078;-53
2022/07/13 01:50:20;;;;;;;20.55;9.10;;;;;;;21.94;84.34;101970.44;5013959;28;20120;-53
2022/07/13 01:52:46;;;;;;;14.27;8.77;;;;;;;21.93;85.11;101969.63;4998242;28;20026;-52
2022/07/13 01:55:12;;;;;;;13.57;8.90;;;;;;;21.90;80.76;101975.47;4993738;28;20070;-52
2022/07/13 01:57:38;;;;;;;17.90;9.18;;;;;;;21.88;79.86;101980.28;4995284;28;20175;-53
2022/07/13 02:00:06;;;;;;;12.82;8.40;;;;;;;21.84;79.87;101979.00;4995479;28;20037;-52
2022/07/13 02:02:32;;;;;;;13.60;8.88;;;;;;;21.80;80.52;101981.31;4994687;28;20429;-49
2022/07/13 02:04:57;;;;;;;13.23;8.90;;;;;;;21.79;80.52;101979.66;4995716;28;20186;-52
2022/07/13 02:07:23;;;;;;;14.07;9.30;;;;;;;21.77;79.69;101970.03;4995057;28;20111;-52
2022/07/13 02:09:49;;;;;;;13.43;8.27;;;;;;;21.79;81.73;101965.19;4993865;28;20022;-53
2022/07/13 02:12:15;;;;;;;14.57;8.40;;;;;;;21.84;85.29;101959.97;4977511;28;20022;-53
2022/07/13 02:14:40;;;;;;;15.98;8.50;;;;;;;21.83;83.67;101955.59;4997593;28;20220;-52
2022/07/13 02:17:05;;;;;;;17.08;8.32;;;;;;;21.86;83.36;101954.31;4997747;28;20025;-52
2022/07/13 02:19:30;;;;;;;11.13;7.68;;;;;;;21.85;81.60;101953.50;4999080;28;20504;-53
2022/07/13 02:21:56;;;;;;;12.43;8.02;;;;;;;21.80;79.19;101953.28;4999351;28;20112;-53
2022/07/13 02:24:22;;;;;;;13.35;8.20;;;;;;;21.82;77.98;101953.91;4997512;28;20021;-53
2022/07/13 02:26:47;;;;;;;11.00;7.80;;;;;;;21.83;81.34;101944.72;4998889;28;20066;-51
2022/07/13 02:29:12;;;;;;;13.07;7.68;;;;;;;21.88;83.32;101949.53;4997980;28;20078;-53
2022/07/13 02:31:37;;;;;;;11.77;7.75;;;;;;;21.87;82.19;101934.25;4998147;28;20050;-52
2022/07/13 02:34:03;;;;;;;13.32;8.00;;;;;;;21.86;82.64;101921.69;4999107;28;20026;-52
2022/07/13 02:36:28;;;;;;;8.90;6.80;;;;;;;21.89;79.45;101921.28;4997976;28;20413;-52
2022/07/13 02:38:54;;;;;;;10.85;6.93;;;;;;;21.85;77.63;101925.47;4991439;28;20085;-50
2022/07/13 02:41:19;;;;;;;9.23;6.68;;;;;;;21.85;78.37;101923.59;4994484;28;20029;-51
2022/07/13 02:43:44;;;;;;;10.48;6.85;;;;;;;21.84;81.16;101913.75;4999057;28;20480;-54
2022/07/13 02:46:10;;;;;;;9.20;6.25;;;;;;;21.86;80.59;101914.38;4998358;28;20100;-51
2022/07/13 02:48:35;;;;;;;13.13;6.10;;;;;;;21.82;76.98;101923.16;4997659;28;20026;-50
2022/07/13 02:51:00;;;;;;;15.43;5.82;;;;;;;21.76;75.54;101922.97;4998549;28;20112;-50
2022/07/13 02:53:25;;;;;;;8.90;5.70;;;;;;;21.79;75.55;101929.84;4996698;28;20041;-51
2022/07/13 02:55:51;;;;;;;12.50;6.18;;;;;;;21.77;80.72;101927.34;4997423;28;20022;-52
2022/07/13 02:58:16;;;;;;;9.15;6.80;;;;;;;21.72;82.63;101926.31;4997918;28;20033;-50
2022/07/13 03:00:41;;;;;;;13.77;6.35;;;;;;;21.75;74.30;101925.88;4997821;28;20053;-51
2022/07/13 03:03:07;;;;;;;14.77;6.00;;;;;;;21.73;73.25;101928.00;4997344;28;20026;-50
2022/07/13 03:05:32;;;;;;;12.48;6.00;;;;;;;21.74;74.35;101924.19;4998533;28;20034;-51
2022/07/13 03:07:58;;;;;;;10.90;5.72;;;;;;;21.71;74.03;101924.66;4997845;28;20024;-50
2022/07/13 03:10:23;;;;;;;9.85;5.70;;;;;;;21.75;76.54;101926.72;4995587;28;20029;-51
2022/07/13 03:12:48;;;;;;;12.75;5.80;;;;;;;21.72;77.10;101918.97;4998081;28;20342;-50
2022/07/13 03:15:14;;;;;;;8.13;5.65;;;;;;;21.71;72.82;101925.47;4998099;28;20171;-49
2022/07/13 03:17:42;;;;;;;9.32;4.80;;;;;;;21.69;72.10;101927.56;4997696;28;20029;-50
2022/07/13 03:20:09;;;;;;;10.18;4.63;;;;;;;21.72;71.34;101927.13;4997829;28;20457;-51
2022/07/13 03:22:34;;;;;;;13.05;4.60;;;;;;;21.71;70.29;101922.75;4980303;28;20469;-51
2022/07/13 03:24:59;;;;;;;7.47;4.20;;;;;;;21.70;70.21;101912.91;4994852;28;20028;-51
2022/07/13 03:27:25;;;;;;;8.32;4.30;;;;;;;21.73;70.06;101911.66;4997063;28;20262;-52
2022/07/13 03:29:50;;;;;;;7.38;3.75;;;;;;;21.71;69.98;101905.63;4997161;28;20385;-50
2022/07/13 03:32:15;;;;;;;7.43;4.10;;;;;;;21.72;70.06;101909.97;4997664;28;20033;-51
2022/07/13 03:34:41;;;;;;;14.23;4.50;;;;;;;21.71;69.52;101911.88;4997878;28;20064;-48
2022/07/13 03:37:07;;;;;;;11.90;3.90;;;;;;;21.71;69.64;101913.78;4997615;28;20112;-52
2022/07/13 03:39:33;;;;;;;8.50;3.85;;;;;;;21.70;68.90;101902.03;4996353;28;20026;-50
2022/07/13 03:41:58;;;;;;;8.15;3.90;;;;;;;21.70;68.76;101904.75;4995917;28;20513;-49
2022/07/13 03:44:23;;;;;;;6.60;3.90;;;;;;;21.72;68.93;101899.94;4996910;28;20026;-47
2022/07/13 03:46:49;;;;;;;8.10;3.90;;;;;;;21.74;68.38;101899.72;4997466;28;20026;-49
2022/07/13 03:49:14;;;;;;;6.32;3.95;;;;;;;21.75;68.02;101904.13;4997708;28;20087;-49
2022/07/13 03:51:40;;;;;;;12.07;3.78;;;;;;;21.73;67.94;101900.78;4997106;28;20056;-47
2022/07/13 03:54:06;;;;;;;6.32;3.70;;;;;;;21.76;68.12;101905.81;4995703;28;20299;-49
2022/07/13 03:56:31;;;;;;;7.75;3.55;;;;;;;21.76;68.41;101900.38;4996713;28;20191;-50
2022/07/13 03:58:57;;;;;;;8.60;4.30;;;;;;;21.73;68.31;101903.50;4996182;28;20053;-49
2022/07/13 04:01:22;;;;;;;7.25;3.70;;;;;;;21.74;68.59;101905.16;4996459;28;20033;-47
2022/07/13 04:03:48;;;;;;;6.50;4.15;;;;;;;21.74;68.83;101907.88;4997548;28;20018;-48
2022/07/13 04:06:13;;;;;;;10.98;4.00;;;;;;;21.69;69.36;101907.69;4995331;28;20110;-51
2022/07/13 04:08:38;;;;;;;7.85;3.80;;;;;;;21.69;68.85;101903.09;4988392;28;20022;-51
2022/07/13 04:11:04;;;;;;;4.18;3.47;;;;;;;21.66;69.20;101902.69;4996161;28;20036;-51
2022/07/13 04:13:29;;;;;;;10.68;4.15;;;;;;;21.65;69.91;101898.28;4997439;28;20026;-50
2022/07/13 04:15:55;;;;;;;9.57;4.15;;;;;;;21.63;69.22;101886.78;4996685;28;20061;-50
2022/07/13 04:18:20;;;;;;;6.93;3.90;;;;;;;21.60;70.49;101891.56;4978103;28;20429;-50
2022/07/13 04:20:46;;;;;;;7.25;3.90;;;;;;;21.59;70.27;101884.47;4997477;28;20082;-49
2022/07/13 04:23:11;;;;;;;9.57;3.92;;;;;;;21.61;69.80;101887.00;4996331;28;20297;-50
2022/07/13 04:25:36;;;;;;;11.77;3.72;;;;;;;21.56;70.18;101881.34;4995374;28;20017;-48
2022/07/13 04:28:02;;;;;;;12.98;4.15;;;;;;;21.56;70.46;101886.78;4996751;28;20590;-50
2022/07/13 04:30:27;;;;;;;7.65;4.53;;;;;;;21.54;70.68;101884.28;4996102;28;20048;-49
2022/07/13 04:32:52;;;;;;;8.07;3.90;;;;;;;21.56;71.02;101878.63;4996312;28;20018;-51
2022/07/13 04:35:18;;;;;;;10.98;4.22;;;;;;;21.55;71.23;101880.50;4995828;28;20084;-51
2022/07/13 04:37:43;;;;;;;12.27;3.75;;;;;;;21.54;71.54;101881.56;4996632;28;20512;-49
2022/07/13 04:40:09;;;;;;;6.32;3.92;;;;;;;21.57;71.52;101885.72;4994619;28;20154;-47
2022/07/13 04:42:34;;;;;;;12.13;4.13;;;;;;;21.59;71.95;101887.19;4996729;28;20501;-51
2022/07/13 04:44:59;;;;;;;9.18;3.83;;;;;;;21.59;72.37;101884.47;4997173;28;20022;-51
2022/07/13 04:47:25;;;;;;;8.32;4.05;;;;;;;21.60;72.36;101875.25;4995711;28;20094;-52
2022/07/13 04:49:50;;;;;;;8.93;3.75;;;;;;;21.60;72.23;101882.59;4996473;28;20527;-52
2022/07/13 04:52:16;;;;;;;8.32;3.88;;;;;;;21.63;72.52;101876.75;4978276;28;20030;-49
2022/07/13 04:54:41;;;;;;;10.63;4.10;;;;;;;21.65;72.27;101882.78;4994853;28;20018;-53
2022/07/13 04:57:06;;;;;;;8.02;4.10;;;;;;;21.63;72.63;101881.34;4996291;28;20025;-51
2022/07/13 04:59:32;;;;;;;9.02;4.40;;;;;;;21.65;72.36;101879.25;4996243;28;20443;-49
2022/07/13 05:01:57;;;;;;;11.98;4.50;;;;;;;21.63;72.93;101881.34;4994236;28;20499;-52
2022/07/13 05:04:24;;;;;;;9.90;4.25;;;;;;;21.65;73.06;101876.53;4996612;28;20737;-51
2022/07/13 05:06:49;;;;;;;8.95;4.20;;;;;;;21.63;72.71;101870.47;4978866;28;20067;-52
2022/07/13 05:09:15;;;;;;;5.63;4.00;;;;;;;;;;4986576;28;20513;-51
2022/07/13 05:11:40;;;;;;;9.07;4.00;;;;;;;21.65;73.08;101871.09;4994549;28;20021;-51
2022/07/13 05:14:05;;;;;;;9.35;4.20;;;;;;;21.70;72.84;101865.88;4994509;28;20277;-52
2022/07/13 05:16:30;;;;;;;11.05;4.30;;;;;;;21.69;72.80;101865.03;4996012;28;20064;-50
2022/07/13 05:18:57;;;;;;;9.13;4.18;;;;;;;21.75;72.18;101863.34;4996084;28;20052;-51
2022/07/13 05:21:22;;;;;;;8.57;4.07;;;;;;;21.80;72.25;101875.25;4978099;28;20056;-51
2022/07/13 05:23:47;;;;;;;9.18;3.92;;;;;;;21.82;72.58;101866.06;4995139;28;20033;-50
2022/07/13 05:26:13;;;;;;;5.07;3.80;;;;;;;21.86;73.01;101867.31;4995803;28;20022;-52
2022/07/13 05:28:38;;;;;;;6.53;3.72;;;;;;;21.93;73.17;101873.59;4994728;28;20049;-51
2022/07/13 05:31:04;;;;;;;6.40;3.95;;;;;;;21.95;73.12;101869.59;4995876;28;20036;-51
2022/07/13 05:33:29;;;;;;;9.95;4.40;;;;;;;22.00;73.43;101882.56;4994183;28;20018;-51
2022/07/13 05:35:55;;;;;;;10.50;4.60;;;;;;;22.02;72.71;101883.19;4996091;28;20048;-52
2022/07/13 05:38:20;;;;;;;8.25;4.50;;;;;;;21.97;73.15;101891.16;4993049;28;20480;-50
2022/07/13 05:40:46;;;;;;;6.22;4.40;;;;;;;22.00;74.06;101890.72;4990443;28;20032;-52
2022/07/13 05:43:11;;;;;;;9.65;4.50;;;;;;;22.00;74.48;101885.28;4995447;28;20704;-51
2022/07/13 05:45:37;;;;;;;10.93;4.30;;;;;;;21.96;73.91;101876.72;4995328;28;20102;-50
2022/07/13 05:48:02;;;;;;;6.57;4.30;;;;;;;21.97;73.48;101894.69;4995492;28;20105;-50
2022/07/13 05:50:28;;;;;;;9.52;4.40;;;;;;;21.98;74.18;101903.72;4999434;28;20431;-50
2022/07/13 05:52:53;;;;;;;12.77;5.20;;;;;;;22.01;74.19;101897.00;4999493;28;20096;-51
2022/07/13 05:55:18;;;;;;;8.38;4.60;;;;;;;22.02;74.06;101909.56;4997801;28;20488;-51
2022/07/13 05:57:46;;;;;;;11.27;4.88;;;;;;;22.08;74.53;101908.69;5000233;28;20037;-49
2022/07/13 06:00:13;;;;;;;11.38;4.90;;;;;;;22.12;73.75;101907.25;4999406;28;20025;-48
2022/07/13 06:02:42;;;;;;;13.40;5.00;;;;;;;22.21;73.92;101905.13;4998017;28;20036;-50
2022/07/13 06:05:08;;;;;;;12.98;5.03;;;;;;;22.27;72.65;101905.09;4999026;28;20149;-50
2022/07/13 06:07:34;;;;;;;12.77;4.40;;;;;;;22.36;73.11;101903.03;4996975;28;20510;-52
2022/07/13 06:10:01;;;;;;;12.05;4.57;;;;;;;22.42;71.11;101904.03;4995277;28;20021;-50
2022/07/13 06:12:27;;;;;;;15.70;4.45;;;;;;;22.47;72.91;101906.94;5017089;28;20033;-52
2022/07/13 06:14:52;;;;;;;12.73;4.43;;;;;;;22.57;73.26;101907.34;5015822;28;20036;-50
2022/07/13 06:17:18;;;;;;;11.80;4.60;;;;;;;22.62;72.84;101899.34;5013500;28;20321;-51
2022/07/13 06:19:43;;;;;;;12.52;4.35;;;;;;;22.76;72.31;101891.13;5015577;28;20022;-51
2022/07/13 06:22:09;;;;;;;14.15;4.38;;;;;;;22.92;71.49;101898.81;5012245;28;20052;-51
2022/07/13 06:24:34;;;;;;;14.80;4.57;;;;;;;23.08;71.14;101905.66;5016543;28;20021;-51
2022/07/13 06:26:59;;;;;;;9.45;4.30;;;;;;;23.19;70.40;101901.41;5018286;28;20367;-52
2022/07/13 06:29:24;;;;;;;10.38;4.70;;;;;;;23.24;70.66;101898.88;5011926;28;20045;-52
2022/07/13 06:31:50;;;;;;;12.77;4.60;;;;;;;23.22;71.01;101904.53;5013531;28;20166;-51
2022/07/13 06:34:15;;;;;;;9.98;5.13;;;;;;;23.24;68.95;101894.25;5012573;28;20149;-49
2022/07/13 06:36:40;;;;;;;14.23;5.30;;;;;;;23.21;70.16;101896.56;5001985;28;20481;-51
2022/07/13 06:39:06;;;;;;;9.95;4.47;;;;;;;23.26;70.74;101899.47;4996473;28;20480;-51
2022/07/13 06:41:31;;;;;;;12.70;4.93;;;;;;;23.37;70.93;101895.19;4992471;28;20040;-46
2022/07/13 06:43:56;;;;;;;14.07;4.90;;;;;;;23.53;71.46;101896.56;5017308;28;20124;-51
2022/07/13 06:46:23;;;;;;;14.50;5.00;;;;;;;23.67;70.23;101906.28;4997676;28;20104;-52
2022/07/13 06:48:48;;;;;;;11.57;4.65;;;;;;;23.75;69.56;101903.28;5000958;28;20044;-48
2022/07/13 06:51:14;;;;;;;12.13;4.97;;;;;;;23.72;69.88;101902.91;5000569;28;20026;-52
2022/07/13 06:53:39;;;;;;;12.65;5.18;;;;;;;23.73;71.41;101899.13;4997100;28;20030;-52
2022/07/13 06:56:04;;;;;;;13.73;5.30;;;;;;;23.60;71.05;101900.06;4996913;28;20049;-52
2022/07/13 06:58:29;;;;;;;7.93;5.10;;;;;;;23.63;71.76;101899.63;4998478;28;20026;-52
2022/07/13 07:00:55;;;;;;;12.15;5.82;;;;;;;23.76;71.15;101896.78;5005570;28;20026;-49
2022/07/13 07:03:20;;;;;;;10.43;5.18;;;;;;;23.96;69.01;101898.50;5011344;28;20496;-51
2022/07/13 07:05:45;;;;;;;17.42;5.47;;;;;;;24.31;68.82;101906.94;4992827;28;20026;-51
2022/07/13 07:08:11;;;;;;;17.45;6.03;;;;;;;24.45;67.34;101906.81;4998450;28;20447;-51
2022/07/13 07:10:37;;;;;;;15.43;5.63;;;;;;;24.52;67.89;101902.91;4997712;28;20555;-49
2022/07/13 07:13:02;;;;;;;13.82;5.55;;;;;;;24.56;70.17;101900.63;4998701;28;20194;-51
2022/07/13 07:15:27;;;;;;;8.90;4.90;;;;;;;24.54;67.54;101900.84;4997138;28;20075;-50
2022/07/13 07:17:53;;;;;;;12.07;4.90;;;;;;;24.45;67.14;101906.81;4998009;28;20393;-51
2022/07/13 07:20:18;;;;;;;10.18;4.97;;;;;;;24.33;68.75;101904.00;4997976;28;20272;-52
2022/07/13 07:22:45;;;;;;;19.95;4.97;;;;;;;24.29;68.70;101892.69;4998602;28;20369;-52
2022/07/13 07:25:11;;;;;;;12.48;5.05;;;;;;;24.42;67.74;101893.59;4995852;28;20030;-70
2022/07/13 07:27:36;;;;;;;9.32;4.68;;;;;;;24.54;67.90;101889.03;5001367;28;20022;-52
2022/07/13 07:30:02;;;;;;;9.82;4.55;;;;;;;24.70;68.89;101877.50;4998106;28;20485;-52
2022/07/13 07:32:28;;;;;;;10.55;4.35;;;;;;;24.80;68.04;101885.16;4996622;28;20025;-53
2022/07/13 07:34:53;;;;;;;11.57;4.63;;;;;;;24.83;67.70;101892.06;4997695;28;20168;-50
2022/07/13 07:37:20;;;;;;;9.95;4.65;;;;;;;24.80;67.57;101897.97;4997293;28;20536;-50
2022/07/13 07:39:46;;;;;;;10.48;4.80;;;;;;;24.86;68.55;101891.59;4996444;28;20040;-52
2022/07/13 07:42:11;;;;;;;14.40;4.45;;;;;;;25.10;67.75;101890.63;5008313;28;20026;-51
2022/07/13 07:44:37;;;;;;;8.63;4.60;;;;;;;25.24;66.52;101887.69;4998087;28;20508;-51
2022/07/13 07:47:02;;;;;;;10.97;4.93;;;;;;;25.36;65.17;101895.94;4997142;28;20106;-49
2022/07/13 07:49:27;;;;;;;11.70;4.88;;;;;;;25.36;66.25;101893.19;4996984;28;20268;-47
2022/07/13 07:51:53;;;;;;;12.32;4.40;;;;;;;25.26;65.62;101889.16;4997076;28;20030;-48
2022/07/13 07:54:18;;;;;;;11.40;4.93;;;;;;;25.27;65.64;101888.09;5002489;28;20037;-51
2022/07/13 07:56:43;;;;;;;10.63;4.57;;;;;;;25.34;66.36;101892.59;5013932;28;20023;-48
2022/07/13 07:59:09;;;;;;;15.30;4.60;;;;;;;25.29;65.99;101896.88;5015810;28;20033;-50
2022/07/13 08:01:34;;;;;;;8.35;4.13;;;;;;;25.29;66.48;101902.34;4938498;28;20025;-51
2022/07/13 08:03:59;;;;;;;7.80;4.45;;;;;;;25.24;67.01;101893.16;4983262;28;20116;-50
2022/07/13 08:06:25;;;;;;;10.40;4.72;;;;;;;25.37;67.51;101892.97;4967498;28;20116;-50
2022/07/13 08:08:50;;;;;;;12.18;4.88;;;;;;;25.54;67.12;101898.59;4994510;28;20034;-50
2022/07/13 08:11:19;;;;;;;10.00;4.78;;;;;;;25.66;68.52;101896.72;4977815;28;20417;-50
2022/07/13 08:13:46;;;;;;;15.20;5.15;;;;;;;25.76;66.57;101901.56;4996967;28;20060;-51
2022/07/13 08:16:13;;;;;;;11.43;5.07;;;;;;;25.72;66.63;101891.38;4996377;28;20025;-52
2022/07/13 08:18:39;;;;;;;11.85;5.20;;;;;;;25.67;67.05;101887.41;5000229;28;20025;-48
2022/07/13 08:21:04;;;;;;;13.95;5.00;;;;;;;25.63;67.03;101891.72;5009667;28;20037;-51
2022/07/13 08:26:13;;;;;;;16.33;5.70;;;;;;;26.13;66.38;101900.53;4993853;28;20377;-51
2022/07/13 08:28:39;;;;;;;11.98;5.18;;;;;;;26.39;67.21;101891.81;4979459;28;20505;-50
2022/07/13 08:31:05;;;;;;;11.57;4.33;;;;;;;26.50;64.35;101900.25;5004816;28;20461;-50
2022/07/13 08:38:58;;;;;;;8.25;4.10;;;;;;;26.21;62.55;101900.19;4996572;28;20500;-50
2022/07/13 08:41:23;;;;;;;8.00;3.83;;;;;;;26.23;63.17;101896.09;4996726;28;20033;-52
2022/07/13 08:43:48;;;;;;;8.13;3.83;;;;;;;26.23;62.83;101901.59;4996058;28;20686;-51
2022/07/13 08:46:14;;;;;;;9.75;4.20;;;;;;;26.22;62.04;101893.59;4993251;28;20045;-50
2022/07/13 08:48:43;;;;;;;12.10;3.77;;;;;;;26.22;62.66;101905.41;4996109;28;20426;-51
2022/07/13 08:51:09;;;;;;;15.13;3.83;;;;;;;26.13;61.67;101911.50;4996750;28;20713;-52
2022/07/13 08:53:34;;;;;;;8.95;3.80;;;;;;;26.14;61.99;101907.69;4995543;28;20099;-51
2022/07/13 08:56:00;;;;;;;6.80;3.70;;;;;;;26.09;61.76;101916.63;4996752;28;20022;-50
2022/07/13 08:58:26;;;;;;;8.95;4.18;;;;;;;26.01;62.66;101911.50;4995645;28;20022;-49
2022/07/13 09:00:51;;;;;;;8.20;3.90;;;;;;;26.09;62.78;101907.53;4996540;28;20463;-51
2022/07/13 09:03:17;;;;;;;7.90;4.00;;;;;;;26.23;62.58;101908.97;4999406;28;20013;-50
2022/07/13 09:05:43;;;;;;;11.20;4.17;;;;;;;26.53;61.93;101911.53;5009105;28;20104;-51
2022/07/13 09:08:09;;;;;;;9.43;4.28;;;;;;;26.59;61.05;101917.94;4996214;28;20265;-50
2022/07/13 09:10:55;;;;;;;8.93;4.00;;;;;;;26.73;62.10;101919.38;4995934;28;20112;-52
2022/07/13 09:13:44;;;;;;;13.15;4.15;;;;;;;26.90;62.41;101913.09;4996866;28;20021;-51
2022/07/13 09:16:20;;;;;;;8.73;4.72;;;;;;;26.77;60.83;101916.97;4978719;28;20037;-51
2022/07/13 09:18:48;;;;;;;9.95;3.95;;;;;;;26.68;61.85;101908.31;4995740;28;20034;-51
2022/07/13 09:21:15;;;;;;;10.90;4.20;;;;;;;26.62;60.32;101911.97;4996613;28;20380;-50
2022/07/13 09:23:40;;;;;;;8.27;4.47;;;;;;;26.79;61.16;101907.41;4995342;28;20034;-52
2022/07/13 09:26:06;;;;;;;13.88;4.25;;;;;;;26.95;60.09;101916.78;5009194;28;20228;-49
2022/07/13 09:28:45;;;;;;;8.98;4.25;;;;;;;27.13;57.01;101931.38;4996209;28;20057;-52
2022/07/13 09:31:12;;;;;;;12.65;4.20;;;;;;;27.15;58.43;101927.28;4996161;28;20036;-53
2022/07/13 09:33:40;;;;;;;11.65;4.55;;;;;;;27.29;60.14;101927.88;4995141;28;20392;-51
2022/07/13 09:36:13;;;;;;;11.82;4.80;;;;;;;27.36;60.32;101927.69;4996179;28;20499;-50
2022/07/13 09:38:44;;;;;;;8.10;4.00;;;;;;;27.25;57.37;101932.13;4987550;28;20050;-50
2022/07/13 09:41:25;;;;;;;8.55;4.43;;;;;;;27.23;57.28;101925.25;4995244;28;20420;-51
2022/07/13 09:46:35;;;;;;;10.10;4.78;;;;;;;27.14;59.06;101925.63;4995761;28;20136;-51
2022/07/13 09:49:00;;;;;;;8.05;4.65;;;;;;;27.06;57.85;101934.25;4996624;28;20096;-51
2022/07/13 09:51:26;;;;;;;10.55;4.53;;;;;;;26.93;59.96;101937.28;4995744;28;20565;-52
2022/07/13 09:53:59;;;;;;;10.30;4.55;;;;;;;26.86;60.67;101934.69;4993554;28;20712;-54
2022/07/13 09:56:26;;;;;;;10.38;4.20;;;;;;;26.81;59.53;101931.84;5011443;28;20025;-53
2022/07/13 09:58:53;;;;;;;10.15;4.55;;;;;;;26.83;58.30;101926.13;5007796;28;20038;-51
2022/07/13 10:01:18;;;;;;;10.48;4.28;;;;;;;27.01;58.42;101934.16;4998602;28;20504;-49
2022/07/13 10:03:44;;;;;;;12.10;3.60;;;;;;;27.29;56.28;101930.59;5001718;28;20036;-50
2022/07/13 10:06:09;;;;;;;14.10;3.85;;;;;;;27.51;54.34;101927.97;5014964;28;20037;-50
2022/07/13 10:08:38;;;;;;;10.25;3.78;;;;;;;27.49;53.06;101938.34;4979164;28;20025;-50
2022/07/13 10:11:04;;;;;;;10.95;3.70;;;;;;;27.39;54.79;101935.41;4996140;28;20277;-51
2022/07/13 10:13:30;;;;;;;6.05;3.95;;;;;;;27.66;54.24;101932.03;4995919;28;20050;-51
2022/07/13 10:15:55;;;;;;;12.57;3.72;;;;;;;28.10;54.63;101938.50;4999249;28;20315;-51
2022/07/13 10:18:28;;;;;;;12.35;3.72;;;;;;;28.19;51.50;101933.44;4994514;28;20899;-51
2022/07/13 10:21:15;;;;;;;8.88;3.42;;;;;;;28.21;52.35;101935.91;4995822;28;20244;-52
2022/07/13 10:23:41;;;;;;;8.75;3.83;;;;;;;28.15;52.23;101940.50;4994474;28;20029;-50
2022/07/13 10:26:21;;;;;;;6.10;3.58;;;;;;;28.22;51.55;101932.91;4995618;28;20434;-49
2022/07/13 10:29:02;;;;;;;11.47;3.53;;;;;;;28.26;52.14;101934.06;4995347;28;20045;-52
2022/07/13 10:31:29;;;;;;;11.15;3.92;;;;;;;28.25;52.38;101937.06;4995002;28;20323;-52
2022/07/13 10:33:55;;;;;;;8.88;3.08;;;;;;;28.33;51.02;101938.53;4995793;28;20496;-51
2022/07/13 10:36:55;;;;;;;4.68;2.95;;;;;;;28.69;51.50;101933.53;5008004;28;20045;-52
2022/07/13 10:39:25;;;;;;;5.50;3.00;;;;;;;28.90;48.60;101943.66;4991460;28;20124;-51
2022/07/13 10:41:59;;;;;;;6.13;3.00;;;;;;;28.89;48.80;101938.41;4998907;28;20025;-49
2022/07/13 10:44:43;;;;;;;7.15;2.75;;;;;;;28.65;48.55;101952.47;4999106;28;20009;-51
2022/07/13 10:47:13;;;;;;;8.93;3.00;;;;;;;28.33;48.81;101955.00;4994382;28;20030;-52
2022/07/13 10:49:46;;;;;;;6.75;3.03;;;;;;;28.24;48.97;101949.97;5000877;28;20018;-52
2022/07/13 10:52:21;;;;;;;4.72;3.42;;;;;;;28.27;49.17;101952.19;5001136;28;20091;-52
2022/07/13 10:55:11;;;;;;;8.75;3.30;;;;;;;28.28;49.23;101953.03;4999658;28;20124;-55
2022/07/13 10:57:38;;;;;;;10.32;3.53;;;;;;;28.18;50.25;101953.72;5000582;28;20128;-54
2022/07/13 11:00:18;;;;;;;8.90;3.55;;;;;;;28.31;50.54;101949.78;4999978;28;20519;-54
2022/07/13 11:02:49;;;;;;;12.30;3.20;;;;;;;28.57;50.13;101950.97;4999325;28;20026;-51
2022/07/13 11:05:17;;;;;;;9.90;3.10;;;;;;;28.72;49.94;101957.75;4998319;28;20030;-51
2022/07/13 11:07:47;;;;;;;15.10;3.92;;;;;;;28.79;50.57;101958.41;4998942;28;20113;-50
2022/07/13 11:10:30;;;;;;;8.30;3.40;;;;;;;28.75;49.74;101959.97;4996435;28;20179;-50
2022/07/13 11:13:14;;;;;;;10.05;2.45;;;;;;;28.60;47.00;101966.16;4998695;28;20025;-51
2022/07/13 11:15:54;;;;;;;12.32;2.90;;;;;;;28.52;47.74;101963.81;4983573;28;20314;-51
2022/07/13 11:18:22;;;;;;;8.93;3.20;;;;;;;28.46;45.48;101961.00;5002877;28;20030;-51
2022/07/13 11:20:57;;;;;;;12.45;2.65;;;;;;;28.50;45.23;101972.31;5007097;28;20045;-50
2022/07/13 11:26:25;;;;;;;8.63;2.60;;;;;;;28.98;45.76;101965.22;4998186;28;20083;-50
2022/07/13 11:29:09;;;;;;;3.45;2.45;;;;;;;28.97;44.12;101960.81;4999805;28;20046;-48
2022/07/13 11:31:36;;;;;;;5.75;3.30;;;;;;;29.05;44.95;101967.75;4999259;28;20030;-52